Aérodrome :
LOGIN :

S'inscrire | Disclaimer

   EN    FR    IT 

 










Légende :    VFR   VFR Marginal   IFR   IFR Intensif   IFR Très Intensif
Visi : 
Plafond : 
>= 8 km
>= 3000ft
5 à 8 km
1000 à 3000 ft
1500m à 5 km
500 à 1000 ft
800 à 1500m
200 à 500 ft
< 800m
< 200 ft
Symboles :   Orages  Brouillard  Fortes neiges  Fortes précipitations  Vent > 20 kt
SIGMETs :   Divers  Orages  Givrage  Turbulence  Onde Orograph.  Cendres Volcan.







- Altitude de l'aérodrome : 197 ft
- Code IATA : XOG
- Voir les cartes d'approche


LFMO - Orange

DERNIER METAR :
  • 211000Z AUTO 36014KT CAVOK 27/07 Q1020 NOSIG

METARs EXPIRÉS :
  • 210930Z AUTO 36016KT CAVOK 26/07 Q1020 NOSIG
  • 210900Z AUTO 36019KT CAVOK 24/07 Q1020 TEMPO 36015G25KT
  • 210830Z AUTO 35020KT CAVOK 24/07 Q1020 TEMPO 36015G25KT
  • 210800Z AUTO 35016KT CAVOK 23/08 Q1020 NOSIG
  • 210730Z AUTO 36018KT CAVOK 22/08 Q1020 NOSIG

TAF TAF LFMO
Valide du 21 à 09h jusqu'au 22 à 09h UTC


210800Z 2109/2209 36015G25KT CAVOK
BECMG 2110/2112 35015KT
TEMPO 2117/2201 35015G25KT
BECMG 2203/2205 VRB03KT
Pas de NOTAMs connus pour ce terrain.



MET'MAP, la Météo Aéronautique d'un coup d'oeil ! - Copyright ORBIFLY Décembre 2007 - Disclaimer

ORBIFLY MET'MAP TEAM :

Programmation & Développement : Alexandra Zaïnal
Conception & Développement : Baudouin d'Aumeries
Co-Programmation & Développement : Marc-Olivier Méhu
Soutien technique & logistique : Manuel Goepfert

Contact : metmap@orbifly.com




SOURCES & CREDITS :

   NOAA